Time;durP1;ratioP1;P1;durP2;ratioP2;P2;SDS_P1;SDS_P2;PMS_P1;PMS_P2;Temp;Humidity;BMP_temperature;BMP_pressure;BME280_temperature;BME280_humidity;BME280_pressure;Samples;Min_cycle;Max_cycle;Signal;HPM_P1;HPM_P2
2023/07/07 00:00:46;;;;;;;14.07;9.38;;;16.20;78.60;;;;;;5022449;28;20083;-75
2023/07/07 00:03:12;;;;;;;15.75;9.65;;;16.20;78.50;;;;;;5035415;28;20539;-74
2023/07/07 00:05:40;;;;;;;15.82;9.25;;;16.20;78.60;;;;;;5024967;28;20075;-74
2023/07/07 00:08:06;;;;;;;11.77;9.07;;;16.10;78.60;;;;;;5029880;28;20469;-74
2023/07/07 00:10:31;;;;;;;14.77;9.90;;;16.10;78.60;;;;;;5027738;28;20036;-76
2023/07/07 00:12:58;;;;;;;14.57;9.93;;;16.10;78.90;;;;;;5032438;28;20026;-75
2023/07/07 00:15:23;;;;;;;15.10;10.43;;;16.10;78.60;;;;;;5023838;28;20421;-76
2023/07/07 00:17:50;;;;;;;14.77;9.43;;;15.90;79.10;;;;;;5044413;28;20025;-74
2023/07/07 00:20:16;;;;;;;17.08;10.02;;;15.90;79.60;;;;;;5039672;28;20098;-74
2023/07/07 00:22:41;;;;;;;13.77;9.25;;;15.90;79.50;;;;;;5031390;28;20051;-74
2023/07/07 00:25:08;;;;;;;14.52;9.68;;;15.90;79.70;;;;;;5040766;28;20021;-75
2023/07/07 00:27:34;;;;;;;12.55;9.25;;;15.80;79.70;;;;;;5043075;28;20143;-74
2023/07/07 00:30:00;;;;;;;14.80;10.13;;;15.80;79.70;;;;;;5037740;28;20024;-73
2023/07/07 00:32:26;;;;;;;14.75;9.05;;;15.80;79.70;;;;;;5034490;28;20445;-74
2023/07/07 00:34:52;;;;;;;15.40;9.05;;;15.80;79.70;;;;;;5040204;28;20022;-75
2023/07/07 00:37:17;;;;;;;13.48;9.18;;;15.80;79.60;;;;;;5044567;28;20485;-76
2023/07/07 00:39:43;;;;;;;13.45;9.15;;;15.80;79.40;;;;;;5041686;28;20069;-73
2023/07/07 00:42:10;;;;;;;14.65;8.88;;;15.70;79.40;;;;;;5037067;28;20052;-75
2023/07/07 00:45:02;;;;;;;15.48;9.80;;;15.70;79.30;;;;;;5025803;28;20014;-74
2023/07/07 00:47:28;;;;;;;14.43;9.15;;;15.70;79.40;;;;;;5057018;28;20045;-75
2023/07/07 00:49:54;;;;;;;13.23;8.85;;;15.70;79.40;;;;;;5036931;28;20048;-73
2023/07/07 00:52:20;;;;;;;12.57;7.95;;;15.70;79.40;;;;;;5039211;28;20469;-75
2023/07/07 00:54:45;;;;;;;13.52;8.32;;;15.80;79.20;;;;;;5033153;28;20029;-73
2023/07/07 00:57:11;;;;;;;14.80;8.77;;;15.80;79.20;;;;;;5033145;28;20021;-73
2023/07/07 00:59:41;;;;;;;12.95;7.93;;;15.80;78.90;;;;;;5033359;28;20037;-73
2023/07/07 01:02:12;;;;;;;12.05;8.10;;;15.80;78.90;;;;;;5031799;28;20048;-74
2023/07/07 01:04:44;;;;;;;14.88;8.55;;;15.80;78.50;;;;;;5038475;28;20036;-74
2023/07/07 01:07:18;;;;;;;14.98;8.45;;;15.90;78.40;;;;;;5037586;28;20116;-74
2023/07/07 01:09:43;;;;;;;14.35;8.57;;;15.80;78.10;;;;;;5036695;28;20036;-74
2023/07/07 01:12:13;;;;;;;12.18;7.63;;;15.80;77.70;;;;;;5023194;28;20034;-74
2023/07/07 01:14:41;;;;;;;12.10;7.95;;;15.80;78.00;;;;;;5020218;28;20045;-74
2023/07/07 01:17:50;;;;;;;12.77;8.38;;;15.80;78.00;;;;;;5038657;28;20422;-75
2023/07/07 01:20:37;;;;;;;12.13;6.63;;;15.70;78.00;;;;;;5030617;28;20497;-74
2023/07/07 01:23:37;;;;;;;11.80;7.53;;;15.70;77.70;;;;;;5020058;28;20033;-74
2023/07/07 01:26:31;;;;;;;12.75;7.63;;;15.70;77.70;;;;;;5027263;28;20037;-74
2023/07/07 01:29:26;;;;;;;12.73;7.80;;;15.70;77.50;;;;;;5023591;28;20021;-74
2023/07/07 01:32:11;;;;;;;11.55;7.45;;;15.70;77.60;;;;;;5029822;28;20026;-74
2023/07/07 01:34:37;;;;;;;11.63;7.57;;;15.70;77.50;;;;;;5033629;28;20041;-73
2023/07/07 01:37:03;;;;;;;11.32;7.78;;;15.60;77.40;;;;;;5042035;28;20028;-74
2023/07/07 01:39:29;;;;;;;11.52;7.10;;;15.60;77.50;;;;;;5035157;28;20043;-75
2023/07/07 01:42:06;;;;;;;12.25;7.45;;;15.60;77.40;;;;;;5037525;28;20056;-74
2023/07/07 01:44:57;;;;;;;12.32;7.00;;;15.60;77.20;;;;;;5024059;28;20525;-74
2023/07/07 01:47:31;;;;;;;13.45;7.65;;;15.60;77.30;;;;;;5027572;28;20037;-74
2023/07/07 01:50:02;;;;;;;11.00;7.25;;;15.60;77.20;;;;;;5030952;28;20075;-74
2023/07/07 01:52:39;;;;;;;14.27;7.35;;;15.60;77.10;;;;;;5042772;28;20500;-74
2023/07/07 01:55:24;;;;;;;12.38;6.95;;;15.50;76.90;;;;;;5034663;28;20382;-73
2023/07/07 01:58:00;;;;;;;10.30;6.85;;;15.50;76.90;;;;;;5039417;28;20072;-76
2023/07/07 02:00:28;;;;;;;12.00;7.18;;;15.40;76.70;;;;;;5026140;28;20088;-73
2023/07/07 02:02:56;;;;;;;11.27;6.50;;;15.40;76.70;;;;;;5038453;28;20029;-75
2023/07/07 02:05:22;;;;;;;11.82;6.93;;;15.40;76.80;;;;;;5040704;28;20094;-73
2023/07/07 02:07:48;;;;;;;12.27;7.22;;;15.40;76.70;;;;;;5024832;28;20026;-75
2023/07/07 02:10:13;;;;;;;9.63;6.32;;;15.40;76.60;;;;;;5027451;28;20061;-73
2023/07/07 02:12:39;;;;;;;10.32;6.72;;;15.40;76.60;;;;;;5034272;28;20025;-74
2023/07/07 02:15:05;;;;;;;9.98;5.90;;;15.40;76.50;;;;;;5027501;28;20155;-74
2023/07/07 02:17:31;;;;;;;12.05;6.43;;;15.40;76.40;;;;;;5030335;28;20657;-74
2023/07/07 02:19:56;;;;;;;11.10;6.38;;;15.30;76.30;;;;;;5029846;28;20108;-73
2023/07/07 02:22:22;;;;;;;11.60;6.35;;;15.30;76.40;;;;;;5031832;28;20021;-73
2023/07/07 02:24:48;;;;;;;13.40;7.35;;;15.30;76.30;;;;;;5033721;28;20064;-74
2023/07/07 02:27:14;;;;;;;10.38;6.22;;;15.30;76.40;;;;;;5030770;28;20411;-73
2023/07/07 02:29:40;;;;;;;12.60;6.32;;;15.30;76.40;;;;;;5031699;28;20037;-73
2023/07/07 02:32:06;;;;;;;10.32;5.68;;;15.30;76.10;;;;;;5033703;28;20041;-75
2023/07/07 02:34:33;;;;;;;9.68;5.78;;;15.20;76.10;;;;;;5030059;28;20017;-74
2023/07/07 02:36:59;;;;;;;10.88;5.80;;;15.30;76.30;;;;;;5027913;28;20040;-74
2023/07/07 02:39:26;;;;;;;10.82;6.25;;;15.20;76.10;;;;;;5034165;28;20025;-74
2023/07/07 02:41:52;;;;;;;9.02;5.40;;;15.20;76.10;;;;;;5038667;28;20032;-74
2023/07/07 02:44:17;;;;;;;10.02;5.65;;;15.20;76.20;;;;;;5027263;28;20029;-74
2023/07/07 02:46:44;;;;;;;8.93;5.25;;;15.20;76.00;;;;;;5025693;28;20116;-75
2023/07/07 02:49:10;;;;;;;8.93;5.30;;;15.20;76.00;;;;;;5027706;28;20025;-74
2023/07/07 02:51:35;;;;;;;10.93;5.43;;;15.20;76.00;;;;;;5026498;28;20497;-74
2023/07/07 02:54:01;;;;;;;10.05;5.80;;;15.10;76.00;;;;;;5037804;28;20029;-74
2023/07/07 02:56:27;;;;;;;10.50;5.47;;;15.10;75.90;;;;;;5036926;28;20052;-74
2023/07/07 02:58:53;;;;;;;9.90;5.55;;;15.10;75.70;;;;;;5031397;28;20060;-73
2023/07/07 03:01:20;;;;;;;8.75;5.25;;;15.10;75.70;;;;;;5030495;28;20041;-75
2023/07/07 03:03:49;;;;;;;9.63;5.35;;;15.10;75.80;;;;;;5045338;28;20381;-74
2023/07/07 03:06:22;;;;;;;10.98;6.13;;;15.10;75.90;;;;;;5040354;28;20068;-77
2023/07/07 03:08:48;;;;;;;9.15;5.95;;;15.00;76.20;;;;;;5044081;28;20033;-75
2023/07/07 03:11:20;;;;;;;10.13;6.28;;;14.90;76.40;;;;;;5013919;28;20029;-76
2023/07/07 03:13:47;;;;;;;10.95;6.72;;;14.90;76.60;;;;;;5039511;28;20060;-75
2023/07/07 03:16:14;;;;;;;9.98;5.72;;;14.90;76.50;;;;;;5034844;28;20049;-74
2023/07/07 03:18:41;;;;;;;10.02;5.20;;;14.90;76.40;;;;;;5022424;28;20097;-73
2023/07/07 03:21:08;;;;;;;11.25;6.15;;;14.90;76.60;;;;;;5026465;28;20051;-74
2023/07/07 03:23:34;;;;;;;10.52;6.90;;;14.90;76.60;;;;;;5027039;28;20025;-74
2023/07/07 03:26:11;;;;;;;12.93;6.00;;;14.80;76.70;;;;;;5028040;28;20041;-73
2023/07/07 03:28:37;;;;;;;12.02;5.78;;;14.90;76.70;;;;;;5026361;28;20108;-75
2023/07/07 03:31:15;;;;;;;9.50;5.40;;;14.90;76.60;;;;;;5024034;28;20790;-73
2023/07/07 03:33:43;;;;;;;10.48;5.78;;;14.80;76.60;;;;;;5031633;28;20473;-74
2023/07/07 03:36:10;;;;;;;9.27;5.50;;;14.80;76.60;;;;;;5026414;28;20060;-73
2023/07/07 03:38:39;;;;;;;8.63;5.22;;;14.80;76.70;;;;;;5026117;28;20470;-74
2023/07/07 03:41:08;;;;;;;9.93;5.70;;;14.80;76.90;;;;;;5025448;28;20491;-74
2023/07/07 03:43:35;;;;;;;9.60;6.28;;;14.70;76.90;;;;;;5031307;28;20044;-74
2023/07/07 03:46:01;;;;;;;14.70;6.50;;;14.70;77.00;;;;;;5029938;28;20414;-73
2023/07/07 03:48:27;;;;;;;12.00;6.20;;;14.70;76.80;;;;;;5023672;28;20035;-73
2023/07/07 03:51:01;;;;;;;14.48;6.07;;;14.70;76.90;;;;;;5040276;28;20036;-74
2023/07/07 03:53:28;;;;;;;12.67;5.70;;;14.70;77.00;;;;;;5021409;28;20029;-74
2023/07/07 03:55:54;;;;;;;12.30;5.78;;;14.70;76.90;;;;;;5041135;28;20042;-76
2023/07/07 03:58:20;;;;;;;11.00;5.72;;;14.80;76.90;;;;;;5039034;28;20075;-74
2023/07/07 04:00:46;;;;;;;10.02;5.75;;;14.80;76.80;;;;;;5030867;28;20494;-75
2023/07/07 04:03:12;;;;;;;9.75;5.80;;;14.80;76.70;;;;;;5041035;28;20048;-73
2023/07/07 04:05:46;;;;;;;10.38;5.65;;;14.80;76.70;;;;;;5034198;28;20072;-73
2023/07/07 04:08:13;;;;;;;10.75;5.32;;;14.90;76.70;;;;;;5026383;28;20018;-73
2023/07/07 04:10:39;;;;;;;12.57;5.57;;;14.90;76.40;;;;;;5034588;28;20430;-74
2023/07/07 04:13:06;;;;;;;10.73;5.68;;;15.00;76.40;;;;;;5037008;28;20033;-74
2023/07/07 04:15:32;;;;;;;11.23;5.40;;;15.00;76.20;;;;;;5034315;28;20486;-75
2023/07/07 04:17:58;;;;;;;10.73;4.97;;;15.10;76.10;;;;;;5026429;28;20018;-74
2023/07/07 04:20:23;;;;;;;8.65;4.95;;;15.20;76.10;;;;;;5026150;28;20049;-74
2023/07/07 04:22:49;;;;;;;12.45;5.03;;;15.20;75.70;;;;;;5027208;28;20033;-74
2023/07/07 04:25:17;;;;;;;12.10;5.28;;;15.20;75.60;;;;;;5032709;28;20027;-77
2023/07/07 04:27:44;;;;;;;9.48;5.05;;;15.30;75.40;;;;;;5045650;28;20143;-75
2023/07/07 04:30:11;;;;;;;11.85;5.10;;;15.30;75.20;;;;;;5030179;28;20432;-74
2023/07/07 04:32:37;;;;;;;9.85;5.18;;;15.30;75.10;;;;;;5034268;28;20071;-74
2023/07/07 04:35:04;;;;;;;11.43;5.60;;;15.30;75.00;;;;;;5041753;28;21330;-74
2023/07/07 04:37:30;;;;;;;12.77;6.07;;;15.40;74.90;;;;;;5044130;28;20024;-75
2023/07/07 04:39:56;;;;;;;11.20;5.50;;;15.40;75.10;;;;;;5038149;28;20738;-74
2023/07/07 04:42:22;;;;;;;10.85;5.82;;;15.40;75.20;;;;;;5031326;28;20032;-73
2023/07/07 04:44:48;;;;;;;8.95;5.53;;;15.40;75.20;;;;;;5034708;28;20245;-73
2023/07/07 04:47:14;;;;;;;12.73;5.28;;;15.50;75.10;;;;;;5025447;28;20489;-75
2023/07/07 04:49:39;;;;;;;12.60;5.50;;;15.50;75.00;;;;;;5036162;28;20030;-74
2023/07/07 04:52:05;;;;;;;13.05;5.90;;;15.60;74.90;;;;;;5041829;28;20045;-74
2023/07/07 04:54:31;;;;;;;12.20;5.57;;;15.60;75.00;;;;;;5033949;28;20049;-75
2023/07/07 04:56:56;;;;;;;13.45;5.57;;;15.60;74.90;;;;;;5034245;28;20040;-73
2023/07/07 04:59:22;;;;;;;12.32;5.38;;;15.70;74.80;;;;;;5027134;28;20033;-74
2023/07/07 05:01:48;;;;;;;15.43;5.78;;;15.70;74.70;;;;;;5039798;28;20037;-73
2023/07/07 05:04:15;;;;;;;11.38;5.68;;;15.80;74.90;;;;;;5027285;28;20356;-73
2023/07/07 05:06:40;;;;;;;14.45;5.78;;;15.90;74.80;;;;;;5035185;28;20034;-73
2023/07/07 05:09:07;;;;;;;11.85;5.55;;;16.00;74.70;;;;;;5035555;28;20121;-75
2023/07/07 05:11:34;;;;;;;12.45;5.53;;;16.00;74.80;;;;;;5025013;28;20394;-76
2023/07/07 05:14:01;;;;;;;14.68;5.82;;;16.10;74.70;;;;;;5036290;28;20029;-75
2023/07/07 05:16:31;;;;;;;11.45;5.47;;;16.40;75.00;;;;;;5030383;28;20033;-74
2023/07/07 05:18:57;;;;;;;12.23;4.97;;;17.40;73.40;;;;;;5028830;28;20056;-74
2023/07/07 05:21:24;;;;;;;11.30;4.65;;;19.30;68.20;;;;;;5027866;28;20064;-75
2023/07/07 05:23:54;;;;;;;10.43;5.28;;;21.00;62.70;;;;;;5032829;28;20021;-74
2023/07/07 05:26:21;;;;;;;10.93;5.05;;;22.40;57.50;;;;;;5040098;28;20080;-74
2023/07/07 05:28:47;;;;;;;10.90;4.90;;;23.30;53.20;;;;;;5036519;28;20036;-73
2023/07/07 05:31:13;;;;;;;9.00;4.85;;;24.30;51.60;;;;;;5028671;28;20049;-74
2023/07/07 05:33:39;;;;;;;8.40;5.13;;;25.20;49.70;;;;;;5031182;28;20473;-76
2023/07/07 05:36:08;;;;;;;11.25;4.97;;;25.10;48.80;;;;;;5030822;28;20104;-74
2023/07/07 05:38:36;;;;;;;9.43;4.90;;;25.60;47.80;;;;;;5027712;28;20439;-73
2023/07/07 05:41:02;;;;;;;6.90;3.90;;;26.20;46.00;;;;;;5029369;28;20029;-73
2023/07/07 05:43:28;;;;;;;8.80;4.45;;;26.90;45.80;;;;;;5039914;28;20022;-73
2023/07/07 05:45:59;;;;;;;7.55;4.20;;;27.50;43.80;;;;;;5035827;28;20052;-74
2023/07/07 05:48:25;;;;;;;8.38;4.07;;;27.80;42.80;;;;;;5037230;28;20056;-74
2023/07/07 05:50:54;;;;;;;8.85;4.05;;;28.10;41.60;;;;;;5031940;28;20061;-75
2023/07/07 05:53:19;;;;;;;9.80;4.45;;;28.10;41.60;;;;;;5030255;28;20048;-74
2023/07/07 05:55:48;;;;;;;8.80;4.50;;;28.00;41.10;;;;;;5035412;28;20474;-75
2023/07/07 05:58:15;;;;;;;7.63;4.07;;;27.60;41.40;;;;;;5029603;28;20067;-74
2023/07/07 06:00:41;;;;;;;8.85;4.28;;;27.00;43.00;;;;;;5028460;28;20103;-74
2023/07/07 06:03:07;;;;;;;8.60;3.72;;;25.70;44.00;;;;;;5028094;28;20026;-74
2023/07/07 06:05:33;;;;;;;8.98;4.00;;;24.70;47.10;;;;;;5027577;28;20032;-75
2023/07/07 06:07:59;;;;;;;9.43;4.18;;;23.80;48.90;;;;;;5033689;28;20052;-74
2023/07/07 06:10:26;;;;;;;9.77;4.30;;;23.10;50.40;;;;;;5028416;28;20044;-74
2023/07/07 06:12:52;;;;;;;8.05;3.83;;;22.60;51.80;;;;;;5035171;28;20025;-74
2023/07/07 06:15:18;;;;;;;11.00;4.03;;;22.40;53.10;;;;;;5034945;28;20042;-74
2023/07/07 06:17:48;;;;;;;8.07;3.63;;;22.10;53.60;;;;;;5027407;28;20057;-74
2023/07/07 06:20:15;;;;;;;7.82;3.72;;;22.10;54.10;;;;;;5027004;28;20049;-74
2023/07/07 06:22:41;;;;;;;7.90;3.90;;;22.10;55.00;;;;;;5028268;28;20018;-74
2023/07/07 06:25:07;;;;;;;6.78;3.40;;;22.10;54.60;;;;;;5039508;28;20086;-74
2023/07/07 06:27:33;;;;;;;8.48;4.05;;;22.20;55.90;;;;;;5008860;28;20025;-74
2023/07/07 06:29:59;;;;;;;8.30;3.88;;;22.30;55.00;;;;;;5021671;28;20025;-74
2023/07/07 06:32:24;;;;;;;7.45;4.45;;;22.40;55.10;;;;;;5018669;28;20021;-74
2023/07/07 06:34:50;;;;;;;7.22;3.70;;;22.40;55.90;;;;;;5028838;28;20100;-74
2023/07/07 06:37:17;;;;;;;8.23;3.75;;;22.60;54.90;;;;;;5027991;28;20434;-73
2023/07/07 06:39:42;;;;;;;6.80;3.47;;;22.60;55.10;;;;;;5028926;28;20814;-74
2023/07/07 06:42:09;;;;;;;6.68;3.58;;;22.80;54.40;;;;;;5027460;28;20132;-74
2023/07/07 06:44:38;;;;;;;6.80;3.53;;;22.90;54.50;;;;;;5035638;28;20021;-74
2023/07/07 06:47:14;;;;;;;7.35;3.63;;;23.00;54.10;;;;;;5022222;28;20029;-74
2023/07/07 06:49:40;;;;;;;7.80;3.28;;;23.10;53.80;;;;;;5035447;28;20033;-73
2023/07/07 06:52:06;;;;;;;8.68;3.17;;;23.20;51.80;;;;;;5033935;28;20049;-74
2023/07/07 06:54:32;;;;;;;7.68;2.83;;;23.30;52.30;;;;;;5030039;28;20025;-74
2023/07/07 06:56:58;;;;;;;6.85;2.97;;;23.50;51.10;;;;;;5035353;28;20055;-74
2023/07/07 06:59:24;;;;;;;6.20;2.88;;;23.50;50.50;;;;;;5034131;28;20017;-74
2023/07/07 07:01:49;;;;;;;7.70;2.83;;;23.70;50.00;;;;;;5039837;28;20087;-74
2023/07/07 07:04:15;;;;;;;8.00;2.70;;;23.70;49.80;;;;;;5021449;28;20036;-74
2023/07/07 07:06:42;;;;;;;6.38;2.72;;;23.80;49.80;;;;;;5042440;28;20486;-74
2023/07/07 07:09:08;;;;;;;7.47;2.97;;;24.00;49.40;;;;;;5028808;28;20109;-74
2023/07/07 07:11:34;;;;;;;6.20;2.45;;;24.00;48.40;;;;;;5041607;28;20049;-75
2023/07/07 07:13:59;;;;;;;7.00;2.60;;;24.20;48.80;;;;;;5036845;28;20032;-74
2023/07/07 07:16:25;;;;;;;7.85;2.78;;;24.30;48.10;;;;;;5032842;28;20099;-74
2023/07/07 07:18:51;;;;;;;7.63;2.85;;;24.40;47.30;;;;;;5025421;28;20476;-74
2023/07/07 07:21:16;;;;;;;7.65;3.20;;;24.50;47.80;;;;;;5035031;28;20045;-74
2023/07/07 07:23:42;;;;;;;5.53;2.40;;;24.60;47.00;;;;;;5031702;28;20025;-74
2023/07/07 07:26:11;;;;;;;5.68;2.97;;;24.80;46.80;;;;;;5045480;28;20530;-73
2023/07/07 07:28:37;;;;;;;5.68;2.78;;;24.80;45.70;;;;;;5044420;28;20089;-73
2023/07/07 07:31:09;;;;;;;7.53;3.00;;;24.80;45.10;;;;;;5024882;28;20137;-73
2023/07/07 07:33:34;;;;;;;6.60;2.50;;;24.90;45.00;;;;;;5028537;28;20541;-74
2023/07/07 07:36:00;;;;;;;7.85;3.08;;;25.00;45.10;;;;;;5018179;28;20124;-73
2023/07/07 07:38:29;;;;;;;6.95;2.80;;;25.20;45.30;;;;;;5028825;28;20036;-74
2023/07/07 07:40:55;;;;;;;5.70;2.45;;;25.30;44.20;;;;;;5028879;28;20461;-75
2023/07/07 07:43:21;;;;;;;7.28;2.97;;;25.50;45.10;;;;;;5027069;28;20017;-73
2023/07/07 07:45:46;;;;;;;7.82;2.90;;;25.60;45.10;;;;;;5033214;28;20104;-74
2023/07/07 07:48:12;;;;;;;7.38;2.75;;;25.80;44.20;;;;;;5039390;28;20070;-73
2023/07/07 07:50:38;;;;;;;6.53;2.53;;;25.90;42.80;;;;;;5042438;28;20055;-74
2023/07/07 07:53:04;;;;;;;7.28;2.70;;;26.00;43.60;;;;;;5029185;28;20067;-73
2023/07/07 07:55:29;;;;;;;7.15;2.92;;;26.10;42.70;;;;;;5033163;28;20029;-75
2023/07/07 07:57:55;;;;;;;7.10;3.08;;;26.10;41.70;;;;;;5037218;28;20017;-74
2023/07/07 08:00:21;;;;;;;6.50;2.50;;;26.10;41.50;;;;;;5021955;28;20040;-75
2023/07/07 08:02:48;;;;;;;6.13;2.70;;;26.20;41.20;;;;;;5027722;28;20618;-75
2023/07/07 08:05:14;;;;;;;6.72;2.58;;;26.30;40.20;;;;;;5030818;28;20726;-75
2023/07/07 08:07:40;;;;;;;8.90;2.72;;;26.50;40.40;;;;;;5034404;28;20037;-75
2023/07/07 08:10:07;;;;;;;7.18;2.53;;;26.60;41.40;;;;;;5024443;28;20037;-74
2023/07/07 08:12:33;;;;;;;8.38;2.92;;;26.70;40.30;;;;;;5029192;28;20542;-75
2023/07/07 08:14:59;;;;;;;7.72;2.67;;;26.80;40.50;;;;;;5037739;28;20048;-75
2023/07/07 08:17:24;;;;;;;5.95;2.58;;;26.80;39.50;;;;;;5025353;28;20029;-74
2023/07/07 08:19:50;;;;;;;7.93;3.05;;;26.80;39.50;;;;;;5025521;28;20060;-75
2023/07/07 08:22:22;;;;;;;6.13;2.95;;;26.70;39.10;;;;;;5027135;28;20048;-75
2023/07/07 08:24:50;;;;;;;6.95;2.47;;;27.00;38.90;;;;;;5039958;28;20014;-74
2023/07/07 08:27:17;;;;;;;7.15;2.70;;;27.20;38.30;;;;;;5043658;28;20060;-74
2023/07/07 08:29:43;;;;;;;5.45;2.65;;;27.30;38.30;;;;;;5032968;28;20064;-74
2023/07/07 08:32:14;;;;;;;6.20;2.60;;;27.40;38.00;;;;;;5027088;28;20049;-74
2023/07/07 08:34:40;;;;;;;5.13;2.50;;;27.50;37.10;;;;;;5025951;28;20025;-75
2023/07/07 08:37:06;;;;;;;6.03;2.72;;;27.50;37.30;;;;;;5023896;28;20049;-74
2023/07/07 08:39:33;;;;;;;6.32;2.60;;;27.80;38.10;;;;;;5027039;28;20105;-74
2023/07/07 08:42:03;;;;;;;6.95;2.72;;;28.00;36.70;;;;;;5025953;28;20045;-74
2023/07/07 08:44:32;;;;;;;5.57;2.45;;;28.10;37.10;;;;;;5034948;28;20048;-75
2023/07/07 08:47:07;;;;;;;5.93;2.30;;;28.20;36.00;;;;;;5024573;28;20041;-75
2023/07/07 08:49:55;;;;;;;7.28;2.58;;;28.30;36.40;;;;;;5029984;28;20030;-73
2023/07/07 08:52:34;;;;;;;6.78;2.78;;;28.60;36.00;;;;;;5028116;28;20046;-74
2023/07/07 08:55:05;;;;;;;8.45;3.05;;;28.50;34.80;;;;;;5034693;28;20013;-74
2023/07/07 08:57:35;;;;;;;7.43;2.53;;;28.40;35.00;;;;;;5040856;28;20025;-74
2023/07/07 09:00:17;;;;;;;7.97;2.70;;;28.20;34.60;;;;;;5032328;28;20393;-74
2023/07/07 09:03:10;;;;;;;7.07;2.60;;;28.20;35.40;;;;;;5027797;28;20021;-75
2023/07/07 09:06:01;;;;;;;6.37;2.77;;;28.00;34.80;;;;;;5039691;28;20374;-74
2023/07/07 09:08:45;;;;;;;6.50;2.63;;;28.10;35.10;;;;;;5036679;28;20041;-76
2023/07/07 09:11:34;;;;;;;7.93;2.90;;;28.30;34.20;;;;;;5042555;28;20041;-75
2023/07/07 09:14:01;;;;;;;4.47;2.42;;;28.30;33.30;;;;;;5034480;28;20096;-75
2023/07/07 09:16:32;;;;;;;7.07;2.70;;;28.30;33.30;;;;;;5033929;28;20545;-75
2023/07/07 09:19:06;;;;;;;5.55;2.60;;;28.60;34.30;;;;;;5016200;28;20025;-75
2023/07/07 09:21:45;;;;;;;5.72;2.83;;;28.80;35.30;;;;;;5038289;28;20040;-75
2023/07/07 09:24:20;;;;;;;6.30;2.60;;;28.90;32.70;;;;;;5046488;28;20411;-75
2023/07/07 09:26:49;;;;;;;5.75;2.53;;;29.00;33.10;;;;;;5046337;28;20037;-76
2023/07/07 09:29:21;;;;;;;7.00;2.67;;;29.20;32.60;;;;;;5040358;28;20013;-75
2023/07/07 09:31:47;;;;;;;8.55;2.80;;;29.40;32.10;;;;;;5030429;28;20386;-75
2023/07/07 09:34:14;;;;;;;5.88;2.63;;;29.20;32.80;;;;;;5019017;28;20041;-76
2023/07/07 09:37:19;;;;;;;5.78;2.55;;;29.20;33.20;;;;;;5030832;28;20099;-75
2023/07/07 09:40:13;;;;;;;6.90;2.45;;;29.10;33.10;;;;;;5029296;28;20025;-75
2023/07/07 09:42:46;;;;;;;8.43;3.00;;;29.10;33.90;;;;;;5033892;28;20048;-75
2023/07/07 09:45:30;;;;;;;7.60;3.05;;;29.20;34.10;;;;;;5041720;28;20108;-75
2023/07/07 09:48:17;;;;;;;6.25;2.63;;;29.40;33.30;;;;;;5037702;28;20040;-75
2023/07/07 09:50:56;;;;;;;6.32;2.63;;;29.50;34.10;;;;;;5033419;28;20049;-75
2023/07/07 09:53:31;;;;;;;6.93;2.80;;;29.60;34.60;;;;;;5042693;28;20017;-75
2023/07/07 09:55:57;;;;;;;8.00;2.90;;;29.50;34.80;;;;;;5040474;28;20427;-75
2023/07/07 09:58:35;;;;;;;8.40;3.15;;;29.50;34.80;;;;;;5043373;28;20096;-75
2023/07/07 10:01:02;;;;;;;6.80;3.28;;;29.60;33.90;;;;;;5038164;28;20059;-74
2023/07/07 10:03:32;;;;;;;6.88;2.70;;;29.50;33.20;;;;;;5034023;28;20031;-75
2023/07/07 10:05:59;;;;;;;9.68;3.15;;;29.50;33.20;;;;;;5040905;28;20473;-74
2023/07/07 10:08:25;;;;;;;8.45;3.08;;;29.50;34.50;;;;;;5044353;28;20029;-75
2023/07/07 10:11:08;;;;;;;8.57;3.20;;;29.60;34.20;;;;;;5038936;28;20130;-75
2023/07/07 10:13:35;;;;;;;8.30;2.88;;;29.80;34.50;;;;;;5031420;28;20026;-74
2023/07/07 10:16:05;;;;;;;9.30;3.13;;;29.70;34.30;;;;;;5029072;28;20055;-74
2023/07/07 10:18:32;;;;;;;5.80;3.00;;;29.90;33.20;;;;;;5028484;28;20029;-74
2023/07/07 10:21:02;;;;;;;8.50;3.22;;;29.80;30.60;;;;;;5020858;28;20475;-74
2023/07/07 10:23:29;;;;;;;6.80;2.95;;;30.00;31.50;;;;;;5021611;28;20029;-74
2023/07/07 10:25:55;;;;;;;7.72;2.88;;;30.20;32.00;;;;;;5028510;28;20064;-75
2023/07/07 10:28:23;;;;;;;6.97;3.05;;;30.40;33.20;;;;;;5027174;28;20096;-75
2023/07/07 10:30:49;;;;;;;7.22;2.83;;;30.40;32.40;;;;;;5029401;28;20083;-74
2023/07/07 10:33:21;;;;;;;8.73;3.33;;;30.00;32.20;;;;;;5031593;28;20025;-75
2023/07/07 10:35:48;;;;;;;5.50;2.92;;;30.00;32.00;;;;;;5027504;28;20032;-75
2023/07/07 10:38:13;;;;;;;5.47;2.80;;;29.80;32.60;;;;;;5028286;28;20021;-76
2023/07/07 10:40:42;;;;;;;8.45;3.05;;;29.80;32.00;;;;;;5032932;28;20470;-75
2023/07/07 10:43:15;;;;;;;11.10;3.22;;;30.10;33.10;;;;;;5031227;28;20029;-75
2023/07/07 10:45:45;;;;;;;6.72;2.88;;;30.20;32.40;;;;;;5034612;28;20087;-75
2023/07/07 10:48:13;;;;;;;5.80;3.10;;;30.10;32.80;;;;;;5038492;28;20028;-73
2023/07/07 10:50:54;;;;;;;8.10;3.00;;;30.30;32.50;;;;;;5042729;28;20025;-74
2023/07/07 10:53:48;;;;;;;12.35;3.47;;;30.40;33.20;;;;;;5042391;28;20104;-74
2023/07/07 10:56:29;;;;;;;7.97;3.17;;;30.30;32.20;;;;;;5038558;28;20065;-75
2023/07/07 10:58:59;;;;;;;9.15;3.55;;;30.50;32.40;;;;;;5035366;28;20029;-75
2023/07/07 11:01:49;;;;;;;8.18;3.30;;;30.50;32.10;;;;;;5040119;28;20049;-74
2023/07/07 11:04:47;;;;;;;7.10;3.20;;;30.40;33.20;;;;;;5036320;28;20367;-75
2023/07/07 11:07:12;;;;;;;8.93;3.30;;;30.40;33.70;;;;;;5035932;28;20045;-74
2023/07/07 11:09:54;;;;;;;8.82;3.72;;;30.30;32.70;;;;;;5019286;28;20061;-75
2023/07/07 11:12:26;;;;;;;7.95;3.30;;;30.50;33.50;;;;;;5028139;28;20124;-75
2023/07/07 11:14:54;;;;;;;9.05;3.53;;;30.70;33.10;;;;;;5040282;28;20045;-76
2023/07/07 11:17:57;;;;;;;6.28;3.05;;;30.50;33.80;;;;;;5026535;28;20486;-75
2023/07/07 11:20:44;;;;;;;7.43;3.72;;;30.50;33.20;;;;;;5024826;28;20048;-76
2023/07/07 11:23:26;;;;;;;8.88;3.20;;;30.50;32.80;;;;;;5027043;28;20087;-76
2023/07/07 11:26:21;;;;;;;6.63;3.00;;;30.80;34.00;;;;;;5015988;28;20425;-76
2023/07/07 11:28:56;;;;;;;7.07;3.20;;;30.80;33.80;;;;;;5026036;28;20121;-75
2023/07/07 11:31:41;;;;;;;10.25;3.40;;;31.10;34.20;;;;;;5025583;28;20045;-75
2023/07/07 11:34:36;;;;;;;6.65;3.45;;;31.20;33.70;;;;;;5016659;28;20045;-75
2023/07/07 11:37:23;;;;;;;7.40;3.40;;;31.30;32.20;;;;;;5027477;28;20037;-75
2023/07/07 11:40:07;;;;;;;8.75;3.30;;;31.30;31.90;;;;;;5026820;28;20421;-75
2023/07/07 11:42:39;;;;;;;7.63;3.55;;;31.20;31.10;;;;;;5033878;28;20041;-75
2023/07/07 11:45:29;;;;;;;8.35;4.00;;;31.30;31.70;;;;;;5035724;28;20498;-75
2023/07/07 11:48:18;;;;;;;8.10;3.80;;;31.40;31.30;;;;;;5038412;28;20030;-75
2023/07/07 11:51:04;;;;;;;7.15;3.58;;;31.10;31.10;;;;;;5041879;28;20072;-75
2023/07/07 11:53:36;;;;;;;8.23;3.53;;;30.80;31.20;;;;;;5029355;28;20029;-75
2023/07/07 11:56:08;;;;;;;6.90;3.60;;;30.60;32.70;;;;;;5026858;28;20033;-74
2023/07/07 11:58:33;;;;;;;6.90;3.58;;;30.50;32.50;;;;;;5024513;28;20406;-75
2023/07/07 12:01:13;;;;;;;8.68;3.92;;;30.70;32.00;;;;;;5026804;28;20052;-75
2023/07/07 12:03:59;;;;;;;6.65;3.33;;;30.80;32.80;;;;;;5039238;28;20017;-74
2023/07/07 12:06:32;;;;;;;9.18;4.18;;;30.80;32.20;;;;;;5026308;28;20025;-74
2023/07/07 12:09:01;;;;;;;;;;;31.00;32.50;;;;;;5022812;28;20135;-74
2023/07/07 12:11:31;;;;;;;9.02;3.78;;;31.00;32.50;;;;;;5040080;28;20000;-74
2023/07/07 12:14:19;;;;;;;9.52;4.05;;;30.90;32.30;;;;;;5031765;28;20134;-75
2023/07/07 12:16:49;;;;;;;6.90;4.00;;;31.20;32.80;;;;;;5031850;28;20048;-76
2023/07/07 12:19:37;;;;;;;7.82;3.97;;;31.20;32.10;;;;;;5026286;28;20040;-75
2023/07/07 12:22:09;;;;;;;6.55;3.85;;;31.50;31.80;;;;;;5026494;28;20199;-76
2023/07/07 12:24:56;;;;;;;8.65;4.10;;;31.50;32.40;;;;;;5036126;28;20032;-75
2023/07/07 12:27:35;;;;;;;8.18;3.67;;;31.40;32.00;;;;;;5051197;28;20083;-75
2023/07/07 12:30:02;;;;;;;8.18;3.97;;;31.50;32.40;;;;;;5034242;28;20478;-75
2023/07/07 12:32:28;;;;;;;8.80;4.28;;;31.80;32.50;;;;;;5028234;28;20025;-75
2023/07/07 12:35:12;;;;;;;7.25;4.00;;;31.90;30.70;;;;;;5041478;28;20024;-74
2023/07/07 12:37:38;;;;;;;8.38;4.50;;;31.90;30.60;;;;;;5042690;28;20022;-75
2023/07/07 12:40:09;;;;;;;6.63;3.80;;;31.80;30.80;;;;;;5039936;28;20095;-75
2023/07/07 12:42:38;;;;;;;9.43;4.22;;;31.70;31.50;;;;;;5028561;28;20062;-76
2023/07/07 12:45:19;;;;;;;8.27;4.10;;;31.90;31.80;;;;;;5030776;28;20359;-75
2023/07/07 12:47:48;;;;;;;9.10;4.45;;;31.90;30.70;;;;;;5027677;28;20038;-75
2023/07/07 12:50:49;;;;;;;8.27;4.18;;;31.70;31.30;;;;;;5032828;28;20041;-75
2023/07/07 12:53:23;;;;;;;9.50;4.13;;;31.70;31.30;;;;;;5033263;28;20041;-75
2023/07/07 12:56:08;;;;;;;9.20;3.95;;;31.80;30.70;;;;;;5032895;28;20030;-75
2023/07/07 12:58:37;;;;;;;7.75;4.38;;;32.10;31.10;;;;;;5021187;28;20520;-74
2023/07/07 13:01:05;;;;;;;7.40;4.30;;;32.30;30.70;;;;;;5029717;28;20069;-74